Tiempo atmosférico en la estación meteorológica de Arucas, Las Palmas (86 m.)



Fecha
DESCASC
Temp. máxima en grados centígrados (hora)
DESCASC
Temp. mínima en grados centígrados (hora)
DESCASC
Temp. media en grados centígrados
DESCASC
Racha de viento máxima en m/sg (hora)
DESCASC
Velocidad máxima media en intervalos de 10 minutos(hora)
DESCASC
Precipitaciones diarias en mm
DESCASC
Precipitaciones de 00:00 a 06:00 en mm
DESCASC
Precipitaciones de 06:00 a 12:00 en mm
DESCASC
Precipitaciones de 12:00 a 18:00 en mm
DESCASC
Precipitaciones de 18:00 a 24:00 en mm
DESCASC
24-09-2020 25.7 (14:00) 21.7 (23:59) 23.7 7.22 (02:00) 3.33 (01:50) 0.4 0 0.4 0 0
23-09-2020 26 (13:10) 21.6 (00:00) 23.8 9.17 (16:40) 5.28 (16:40) 0 0 0 0 0
22-09-2020 25.7 (16:50) 20.3 (00:00) 23 5.28 (20:00) 3.06 (18:50) 0 0 0 0 0
21-09-2020 25.9 (16:00) 21.6 (00:00) 23.8 3.89 (15:00) 2.5 (13:20) 0 0 0 0 0
20-09-2020 25.8 (14:50) 21 (00:00) 23.4 5.83 (12:50) 3.61 (13:50) 0 0 0 0 0
19-09-2020 25.6 (15:10) 20.8 (00:00) 23.2 6.67 (16:00) 3.89 (13:50) 0 0 0 0 0
18-09-2020 26 (14:20) 21 (00:00) 23.5 5.83 (00:30) 3.33 (00:40) 0 0 0 0 0
17-09-2020 25.8 (15:10) 22.4 (00:00) 24.1 6.94 (20:10) 3.89 (19:50) 0 0 0 0 0
16-09-2020 33 (13:50) 21.3 (00:00) 27.1 7.5 (13:40) 4.72 (13:40) 0 0 0 0 0
15-09-2020 25 (15:20) 22.1 (00:00) 23.6 5.83 (13:00) 3.33 (13:00) 0 0 0 0 0
14-09-2020 25.9 (15:50) 20.4 (00:00) 23.1 4.72 (15:50) 3.06 (15:00) 0 0 0 0 0
13-09-2020 24.7 (13:40) 21 (00:00) 22.9 5.56 (10:50) 3.61 (11:20) 0 0 0 0 0
12-09-2020 25.7 (17:20) 21.1 (00:00) 23.4 4.72 (17:00) 2.78 (16:50) 0 0 0 0 0
11-09-2020 25.5 (14:20) 22.4 (00:00) 23.9 5.28 (13:10) 3.06 (06:40) 0 0 0 0 0
10-09-2020 25.6 (17:10) 21.6 (00:00) 23.6 5.83 (23:00) 2.78 (16:20) 0 0 0 0 0
09-09-2020 27.9 (14:10) 21.3 (00:00) 24.6 5.83 (16:30) 2.78 (16:20) 0 0 0 0 0
08-09-2020 28.2 (10:00) 21.8 (00:00) 25 4.17 (14:30) 2.78 (14:50) 0 0 0 0 0
07-09-2020 27 (18:40) 21.6 (08:00) 24.3 4.72 (15:40) 3.33 (15:50) 0 0 0 0 0
06-09-2020 25.6 (15:10) 21.2 (00:00) 23.4 4.17 (14:30) 2.5 (14:40) 0 0 0 0 0
05-09-2020 26.4 (14:40) 22.2 (00:00) 24.3 7.5 (16:10) 4.44 (16:00) 0 0 0 0 0
04-09-2020 25.6 (15:30) 21 (00:00) 23.3 4.44 (16:10) 2.5 (14:50) 0 0 0 0 0
03-09-2020 26.2 (14:30) 20.2 (00:00) 23.2 6.11 (16:00) 3.89 (15:20) 0 0 0 0 0
02-09-2020 26.2 (15:00) 21.1 (00:00) 23.7 4.17 (12:50) 2.5 (12:50) 0 0 0 0 0
01-09-2020 25.9 (15:00) 22.3 (00:00) 24.1 5.28 (09:50) 3.06 (16:00) 0 0 0 0 0
31-08-2020 25.8 (14:00) 21.1 (00:00) 23.4 7.22 (13:50) 4.17 (12:00) 0 0 0 0 0
30-08-2020 25.7 (14:40) 20.4 (00:00) 23.1 13.33 (05:00) 5.83 (05:00) 0.8 0.8 0 0 0
29-08-2020 26.9 (15:00) 22 (00:00) 24.4 8.61 (18:50) 5 (18:40) 0 0 0 0 0
28-08-2020 26.9 (12:00) 22.5 (00:00) 24.7 5.83 (16:00) 2.5 (02:20) 0 0 0 0 0
27-08-2020 28.4 (13:00) 23.4 (00:00) 25.9 3.61 (15:40) 2.5 (00:40) 0 0 0 0 0
26-08-2020 26 (16:50) 22.2 (00:00) 24.1 4.17 (13:30) 2.78 (23:20) 0 0 0 0 0

Gráficas

Temp. máximas Temp. mínimas Temp. medias Precipitaciones Rachas de viento máximas Velocidades máximas media en intervalos de 10 minutos

Datos horarios

Fecha y hora oficial Temperatura (ºC) Velocidad del viento (km/h) Dirección del viento Racha (km/h) Dirección de racha Precipitación (mm) Presión (hPa) Tendencia (hPa) Humedad (%)
2020-09-24 23:00:00 22.7 3 Sudeste 6 Sudeste 0 -- -- 89
2020-09-24 22:00:00 22.9 3 Sudeste 6 Este 0 -- -- 88
2020-09-24 21:00:00 23.5 5 Este 8 Este 0 -- -- 87
2020-09-24 20:00:00 23.9 3 Nordeste 6 Este 0 -- -- 86
2020-09-24 19:00:00 24.4 3 Norte 9 Noroeste 0 -- -- 83
2020-09-24 18:00:00 25.5 6 Noroeste 14 Noroeste 0 -- -- 79
2020-09-24 17:00:00 25.6 7 Norte 13 Norte 0 -- -- 76
2020-09-24 16:00:00 25.3 5 Norte 10 Norte 0 -- -- 74
2020-09-24 15:00:00 24.8 7 Norte 13 Norte 0 -- -- 81
2020-09-24 14:00:00 25.7 7 Noroeste 14 Norte 0 -- -- 76
2020-09-24 13:00:00 24.6 6 Norte 10 Norte 0 -- -- 86
2020-09-24 12:00:00 24.1 5 Nordeste 9 Norte 0 -- -- 87
2020-09-24 11:00:00 23.9 7 Noroeste 13 Oeste 0 -- -- 80
2020-09-24 10:00:00 23.1 4 Oeste 13 Oeste 0.2 -- -- 81
2020-09-24 09:00:00 22.1 11 Oeste 16 Oeste 0 -- -- 83
2020-09-24 08:00:00 22.2 4 Este 14 Sudeste 0.2 -- -- 83
2020-09-24 07:00:00 23.3 5 Sudeste 11 Oeste 0 -- -- 89
2020-09-24 06:00:00 23.3 6 Oeste 14 Oeste 0 -- -- 86
2020-09-24 05:00:00 23.4 3 Oeste 12 Oeste 0 -- -- 85
2020-09-24 04:00:00 22.9 5 Oeste 14 Oeste 0 -- -- 71
2020-09-24 03:00:00 23.5 4 Nordeste 18 Sudeste 0 -- -- 72
2020-09-24 02:00:00 23.8 12 Este 26 Este 0 -- -- 64
2020-09-24 01:00:00 24 7 Sudeste 15 Sudeste 0 -- -- 61
2020-09-24 00:00:00 23.9 3 Sudoeste 6 Sudeste 0 -- -- 58
2020-09-23 23:00:00 24.3 4 Oeste 8 Sur 0 -- -- 58
2020-09-23 22:00:00 24.6 2 Sur 16 Sudoeste 0 -- -- 57
2020-09-23 21:00:00 24.9 5 Oeste 10 Sudoeste 0 -- -- 55
2020-09-23 20:00:00 24.6 5 Oeste 15 Oeste 0 -- -- 61
2020-09-23 19:00:00 25.3 11 Oeste 28 Oeste 0 -- -- 60
2020-09-23 18:00:00 25.3 16 Oeste 26 Noroeste 0 -- -- 64
2020-09-23 17:00:00 25.2 18 Noroeste 33 Oeste 0 -- -- 70
2020-09-23 16:00:00 25.7 17 Noroeste 30 Noroeste 0 -- -- 76
2020-09-23 15:00:00 25.1 13 Noroeste 25 Noroeste 0 -- -- 80
2020-09-23 14:00:00 25.8 10 Noroeste 19 Noroeste 0 -- -- 77
2020-09-23 13:00:00 25.7 10 Noroeste 18 Oeste 0 -- -- 74
2020-09-23 12:00:00 25.6 7 Norte 14 Noroeste 0 -- -- 75
2020-09-23 11:00:00 24.3 7 Noroeste 13 Oeste 0 -- -- 82
2020-09-23 10:00:00 23.3 5 Noroeste 13 Oeste 0 -- -- 85
2020-09-23 09:00:00 22.3 5 Oeste 11 Oeste 0 -- -- 89
2020-09-23 08:00:00 21.9 5 Oeste 9 Oeste 0 -- -- 92
2020-09-23 07:00:00 21.9 7 Oeste 9 Oeste 0 -- -- 92
2020-09-23 06:00:00 22 5 Oeste 11 Noroeste 0 -- -- 92
2020-09-23 05:00:00 21.9 6 Oeste 9 Oeste 0 -- -- 92
2020-09-23 04:00:00 21.8 3 Sudoeste 5 Sur 0 -- -- 92
2020-09-23 03:00:00 21.9 4 Sudeste 6 Sudeste 0 -- -- 90
2020-09-23 02:00:00 22.1 3 Oeste 8 Oeste 0 -- -- 88
2020-09-23 01:00:00 22.8 8 Noroeste 12 Oeste 0 -- -- 88
2020-09-23 00:00:00 22.9 6 Oeste 15 Noroeste 0 -- -- 86
2020-09-22 23:00:00 23 8 Oeste 15 Oeste 0 -- -- 87
2020-09-22 22:00:00 23.1 10 Noroeste 16 Noroeste 0 -- -- 88
2020-09-22 21:00:00 23.2 10 Noroeste 18 Noroeste 0 -- -- 87
2020-09-22 20:00:00 23.5 11 Noroeste 19 Oeste 0 -- -- 87
2020-09-22 19:00:00 23.9 11 Noroeste 19 Noroeste 0 -- -- 87
2020-09-22 18:00:00 24.6 8 Norte 14 Norte 0 -- -- 83
2020-09-22 17:00:00 25.4 6 Norte 17 Norte 0 -- -- 80
2020-09-22 16:00:00 25.3 6 Norte 13 Nordeste 0 -- -- 80
2020-09-22 15:00:00 25.3 7 Nordeste 13 Nordeste 0 -- -- 80
2020-09-22 14:00:00 25.2 8 Nordeste 13 Este 0 -- -- 81
2020-09-22 13:00:00 25 9 Nordeste 16 Nordeste 0 -- -- 80
2020-09-22 12:00:00 24.8 6 Norte 10 Nordeste 0 -- -- 80
2020-09-22 11:00:00 23.9 7 Nordeste 10 Nordeste 0 -- -- 83
2020-09-22 10:00:00 23.2 6 Nordeste 10 Sudeste 0 -- -- 86
2020-09-22 09:00:00 22.2 7 Sudeste 11 Sudeste 0 -- -- 87
2020-09-22 08:00:00 21.6 3 Sudeste 5 Este 0 -- -- 91
2020-09-22 07:00:00 21.5 0 Calma 4 Este 0 -- -- 93
2020-09-22 06:00:00 21.1 2 Sudeste 5 Sudeste 0 -- -- 93
2020-09-22 05:00:00 20.4 0 Calma 6 Sudeste 0 -- -- 92
2020-09-22 04:00:00 21.2 2 Sur 6 Sudeste 0 -- -- 92
2020-09-22 03:00:00 21.6 6 Sudeste 10 Sur 0 -- -- 90
2020-09-22 02:00:00 21.4 4 Sudeste 5 Sudeste 0 -- -- 90
2020-09-22 01:00:00 21.9 2 Oeste 5 Noroeste 0 -- -- 90
2020-09-22 00:00:00 21.6 0 Calma 4 Este 0 -- -- 89
2020-09-21 23:00:00 22.2 2 Nordeste 5 Sudeste 0 -- -- 87
2020-09-21 22:00:00 22.7 2 Norte 7 Norte 0 -- -- 86
2020-09-21 21:00:00 23 3 Norte 8 Norte 0 -- -- 86
2020-09-21 20:00:00 23 6 Nordeste 8 Este 0 -- -- 86
2020-09-21 19:00:00 24.1 4 Norte 11 Norte 0 -- -- 82
2020-09-21 18:00:00 24.9 5 Norte 13 Norte 0 -- -- 78
2020-09-21 17:00:00 25.3 6 Norte 13 Nordeste 0 -- -- 77
2020-09-21 16:00:00 25.9 6 Norte 13 Norte 0 -- -- 73
2020-09-21 15:00:00 25.3 8 Norte 14 Norte 0 -- -- 75
2020-09-21 14:00:00 25.1 8 Nordeste 13 Nordeste 0 -- -- 75
2020-09-21 13:00:00 25 6 Norte 12 Nordeste 0 -- -- 75
2020-09-21 12:00:00 24.7 6 Norte 12 Norte 0 -- -- 76
2020-09-21 11:00:00 24 7 Nordeste 11 Nordeste 0 -- -- 79
2020-09-21 10:00:00 23.4 4 Nordeste 8 Nordeste 0 -- -- 81
2020-09-21 09:00:00 22.4 3 Nordeste 8 Nordeste 0 -- -- 84
2020-09-21 08:00:00 21.7 4 Norte 9 Norte 0 -- -- 86
2020-09-21 07:00:00 21.8 0 Calma 6 Noroeste 0 -- -- 84
2020-09-21 06:00:00 22.2 3 Norte 10 Norte 0 -- -- 83
2020-09-21 05:00:00 22.2 4 Noroeste 8 Noroeste 0 -- -- 84
2020-09-21 04:00:00 22.1 4 Noroeste 8 Noroeste 0 -- -- 85
2020-09-21 03:00:00 21.8 4 Oeste 8 Noroeste 0 -- -- 87
2020-09-21 02:00:00 21.8 4 Oeste 7 Noroeste 0 -- -- 87
2020-09-21 01:00:00 22 4 Noroeste 8 Noroeste 0 -- -- 87
2020-09-21 00:00:00 22.1 5 Noroeste 8 Oeste 0 -- -- 87
2020-09-20 23:00:00 22.4 5 Noroeste 9 Norte 0 -- -- 87
2020-09-20 22:00:00 22.4 3 Noroeste 8 Noroeste 0 -- -- 86
2020-09-20 21:00:00 22.6 2 Norte 7 Norte 0 -- -- 85
2020-09-20 20:00:00 23 4 Norte 10 Nordeste 0 -- -- 83
2020-09-20 19:00:00 23.6 5 Nordeste 12 Nordeste 0 -- -- 81
2020-09-20 18:00:00 24.7 6 Nordeste 14 Nordeste 0 -- -- 77
2020-09-20 17:00:00 24.9 8 Nordeste 18 Nordeste 0 -- -- 75
2020-09-20 16:00:00 25.3 10 Nordeste 18 Nordeste 0 -- -- 73
2020-09-20 15:00:00 25.7 11 Nordeste 19 Este 0 -- -- 71
2020-09-20 14:00:00 25.2 13 Nordeste 21 Este 0 -- -- 72
2020-09-20 13:00:00 25 11 Nordeste 21 Este 0 -- -- 72
2020-09-20 12:00:00 24.6 10 Nordeste 18 Este 0 -- -- 73
2020-09-20 11:00:00 23.9 9 Nordeste 15 Nordeste 0 -- -- 75
2020-09-20 10:00:00 23 9 Nordeste 14 Nordeste 0 -- -- 81
2020-09-20 09:00:00 21.7 5 Sudeste 10 Sudeste 0 -- -- 81
2020-09-20 08:00:00 21 6 Sudeste 12 Sudeste 0 -- -- 82
2020-09-20 07:00:00 21.2 6 Sudeste 12 Sur 0 -- -- 80
2020-09-20 06:00:00 21.3 6 Sudeste 12 Sudeste 0 -- -- 80
2020-09-20 05:00:00 21.2 7 Sudeste 12 Sudeste 0 -- -- 81
2020-09-20 04:00:00 21.2 5 Sudeste 11 Nordeste 0 -- -- 82
2020-09-20 03:00:00 21.6 5 Nordeste 13 Este 0 -- -- 80
2020-09-20 02:00:00 21.9 6 Este 14 Este 0 -- -- 80
2020-09-20 01:00:00 21.9 10 Este 17 Este 0 -- -- 81
2020-09-20 00:00:00 22.1 9 Este 15 Este 0 -- -- 82
2020-09-19 23:00:00 22.1 8 Este 14 Este 0 -- -- 82
2020-09-19 22:00:00 22.3 9 Este 15 Nordeste 0 -- -- 81
2020-09-19 21:00:00 22.5 5 Nordeste 13 Nordeste 0 -- -- 81
2020-09-19 20:00:00 22.8 8 Nordeste 15 Nordeste 0 -- -- 79
2020-09-19 19:00:00 23.6 7 Nordeste 15 Nordeste 0 -- -- 76
2020-09-19 18:00:00 24.3 9 Nordeste 18 Nordeste 0 -- -- 73
2020-09-19 17:00:00 24.8 10 Nordeste 17 Este 0 -- -- 71
2020-09-19 16:00:00 25.3 11 Nordeste 24 Nordeste 0 -- -- 69
2020-09-19 15:00:00 25.5 11 Nordeste 21 Este 0 -- -- 69
2020-09-19 14:00:00 25.1 13 Nordeste 21 Este 0 -- -- 70
2020-09-19 13:00:00 24.6 13 Nordeste 20 Nordeste 0 -- -- 71
2020-09-19 12:00:00 24.3 12 Este 19 Nordeste 0 -- -- 71
2020-09-19 11:00:00 24.4 11 Nordeste 19 Nordeste 0 -- -- 71
2020-09-19 10:00:00 24 10 Nordeste 17 Este 0 -- -- 73
2020-09-19 09:00:00 22.8 8 Este 14 Este 0 -- -- 76
2020-09-19 08:00:00 20.8 4 Sudeste 12 Sudeste 0 -- -- 83
2020-09-19 07:00:00 21.1 6 Sudeste 13 Sudeste 0 -- -- 82
2020-09-19 06:00:00 21.1 7 Sudeste 13 Sudeste 0 -- -- 82
2020-09-19 05:00:00 21.4 5 Sudeste 9 Este 0 -- -- 82
2020-09-19 04:00:00 21.6 6 Este 14 Este 0 -- -- 84
2020-09-19 03:00:00 21.7 5 Este 9 Nordeste 0 -- -- 83
2020-09-19 02:00:00 21.9 6 Este 13 Nordeste 0 -- -- 83
2020-09-19 01:00:00 21.9 5 Este 13 Nordeste 0 -- -- 81
2020-09-19 00:00:00 22.2 6 Nordeste 14 Nordeste 0 -- -- 82
2020-09-18 23:00:00 22.2 3 Nordeste 8 Nordeste 0 -- -- 81
2020-09-18 22:00:00 22.4 3 Nordeste 9 Nordeste 0 -- -- 80
2020-09-18 21:00:00 22.5 4 Norte 10 Norte 0 -- -- 79
2020-09-18 20:00:00 23 6 Norte 13 Norte 0 -- -- 76
2020-09-18 19:00:00 24.1 7 Norte 18 Norte 0 -- -- 75
2020-09-18 18:00:00 24.6 9 Norte 16 Norte 0 -- -- 73
2020-09-18 17:00:00 25.1 9 Norte 15 Norte 0 -- -- 71
2020-09-18 16:00:00 25.6 10 Norte 18 Norte 0 -- -- 70
2020-09-18 15:00:00 25.8 8 Norte 16 Norte 0 -- -- 69
2020-09-18 14:00:00 25.4 8 Norte 14 Norte 0 -- -- 71
2020-09-18 13:00:00 25.4 8 Norte 12 Norte 0 -- -- 70
2020-09-18 12:00:00 25.1 7 Norte 13 Norte 0 -- -- 71
2020-09-18 11:00:00 24.7 7 Norte 11 Norte 0 -- -- 71
2020-09-18 10:00:00 23.4 5 Norte 9 Norte 0 -- -- 76
2020-09-18 09:00:00 22.5 4 Norte 9 Norte 0 -- -- 80
2020-09-18 08:00:00 21 5 Oeste 12 Oeste 0 -- -- 84
2020-09-18 07:00:00 21.1 5 Oeste 9 Oeste 0 -- -- 84
2020-09-18 06:00:00 21.5 6 Noroeste 11 Oeste 0 -- -- 83
2020-09-18 05:00:00 22 7 Noroeste 14 Noroeste 0 -- -- 81
2020-09-18 04:00:00 22 8 Noroeste 17 Noroeste 0 -- -- 81
2020-09-18 03:00:00 22.1 8 Noroeste 19 Noroeste 0 -- -- 78
2020-09-18 02:00:00 22.3 10 Noroeste 18 Noroeste 0 -- -- 81
2020-09-18 01:00:00 22.4 11 Noroeste 21 Noroeste 0 -- -- 81
2020-09-18 00:00:00 22.4 10 Noroeste 19 Noroeste 0 -- -- 80
2020-09-17 23:00:00 22.5 12 Noroeste 19 Noroeste 0 -- -- 80
2020-09-17 22:00:00 22.5 11 Noroeste 22 Noroeste 0 -- -- 77
2020-09-17 21:00:00 22.7 12 Noroeste 25 Noroeste 0 -- -- 82
2020-09-17 20:00:00 22.9 12 Noroeste 22 Oeste 0 -- -- 83
2020-09-17 19:00:00 23.4 11 Noroeste 21 Noroeste 0 -- -- 83
2020-09-17 18:00:00 23.8 12 Noroeste 19 Noroeste 0 -- -- 82
2020-09-17 17:00:00 25.1 8 Noroeste 17 Norte 0 -- -- 80
2020-09-17 16:00:00 25 5 Norte 13 Norte 0 -- -- 79
2020-09-17 15:00:00 25.3 7 Norte 14 Oeste 0 -- -- 79
2020-09-17 14:00:00 25 5 Norte 14 Noroeste 0 -- -- 78
2020-09-17 13:00:00 24.3 8 Noroeste 19 Noroeste 0 -- -- 82
2020-09-17 12:00:00 24 9 Noroeste 16 Noroeste 0 -- -- 85
2020-09-17 11:00:00 24.4 7 Noroeste 14 Noroeste 0 -- -- 83
2020-09-17 10:00:00 23.8 6 Noroeste 11 Noroeste 0 -- -- 88
2020-09-17 09:00:00 23.1 5 Oeste 11 Oeste 0 -- -- 91
2020-09-17 08:00:00 23 4 Noroeste 10 Oeste 0 -- -- 91
2020-09-17 07:00:00 23 3 Noroeste 12 Oeste 0 -- -- 91
2020-09-17 06:00:00 22.8 5 Noroeste 10 Oeste 0 -- -- 89
2020-09-17 05:00:00 22.9 5 Oeste 14 Oeste 0 -- -- 87
2020-09-17 04:00:00 22.8 6 Oeste 13 Sudoeste 0 -- -- 87
2020-09-17 03:00:00 23.2 6 Noroeste 11 Noroeste 0 -- -- 91
2020-09-17 02:00:00 23.3 6 Oeste 18 Oeste 0 -- -- 91
2020-09-17 01:00:00 23.4 5 Oeste 11 Noroeste 0 -- -- 91
2020-09-17 00:00:00 23.5 2 Noroeste 8 Este 0 -- -- 91
2020-09-16 23:00:00 23.6 5 Este 11 Este 0 -- -- 91
2020-09-16 22:00:00 23.9 6 Este 10 Este 0 -- -- 90
2020-09-16 21:00:00 24.1 6 Este 12 Este 0 -- -- 88
2020-09-16 20:00:00 24.2 8 Este 10 Este 0 -- -- 88
2020-09-16 19:00:00 25.1 3 Nordeste 6 Nordeste 0 -- -- 83
2020-09-16 18:00:00 24.9 3 Nordeste 10 Nordeste 0 -- -- 83
2020-09-16 17:00:00 25.9 6 Nordeste 12 Nordeste 0 -- -- 81
2020-09-16 16:00:00 27.1 5 Nordeste 12 Sudeste 0 -- -- 71
2020-09-16 15:00:00 28.6 6 Este 17 Este 0 -- -- 51
2020-09-16 14:00:00 32.2 14 Este 27 Este 0 -- -- 43
2020-09-16 13:00:00 29.9 10 Este 24 Sur 0 -- -- 50
2020-09-16 12:00:00 28.3 8 Sur 22 Sudeste 0 -- -- 39
2020-09-16 11:00:00 25 6 Nordeste 21 Nordeste 0 -- -- 75
2020-09-16 10:00:00 24.7 8 Este 12 Sudeste 0 -- -- 63
2020-09-16 09:00:00 22.3 4 Oeste 6 Oeste 0 -- -- 90
2020-09-16 08:00:00 21.8 3 Sur 4 Sur 0 -- -- 92
2020-09-16 07:00:00 21.7 3 Oeste 6 Sudoeste 0 -- -- 92
2020-09-16 06:00:00 21.5 3 Oeste 6 Sudoeste 0 -- -- 91
2020-09-16 05:00:00 21.3 0 Calma 5 Sudoeste 0 -- -- 90
2020-09-16 04:00:00 21.7 0 Calma 5 Oeste 0 -- -- 92
2020-09-16 03:00:00 22 0 Calma 5 Este 0 -- -- 90
2020-09-16 02:00:00 22.3 3 Sudeste 8 Sudeste 0 -- -- 89
2020-09-16 01:00:00 22.2 3 Sudeste 5 Norte 0 -- -- 89
2020-09-16 00:00:00 22.6 4 Este 8 Sudeste 0 -- -- 88
2020-09-15 23:00:00 22.7 3 Sur 8 Oeste 0 -- -- 87
2020-09-15 22:00:00 22.8 5 Oeste 14 Noroeste 0 -- -- 86
2020-09-15 21:00:00 23 9 Noroeste 14 Oeste 0 -- -- 86
2020-09-15 20:00:00 23.5 4 Noroeste 10 Nordeste 0 -- -- 83
2020-09-15 19:00:00 24.4 7 Nordeste 13 Este 0 -- -- 71
2020-09-15 18:00:00 24.6 8 Este 16 Sur 0 -- -- 72
2020-09-15 17:00:00 24.8 6 Sudeste 15 Sudeste 0 -- -- 76
2020-09-15 16:00:00 24.8 6 Nordeste 16 Este 0 -- -- 76
2020-09-15 15:00:00 24.5 9 Este 14 Este 0 -- -- 77
2020-09-15 14:00:00 24.1 8 Este 19 Este 0 -- -- 81
2020-09-15 13:00:00 24.7 12 Este 21 Este 0 -- -- 77
2020-09-15 12:00:00 23.8 6 Nordeste 15 Este 0 -- -- 81
2020-09-15 11:00:00 23.7 6 Este 12 Este 0 -- -- 82
2020-09-15 10:00:00 23.1 5 Este 10 Este 0 -- -- 84
2020-09-15 09:00:00 22.8 4 Nordeste 9 Nordeste 0 -- -- 86
2020-09-15 08:00:00 22.6 4 Nordeste 9 Nordeste 0 -- -- 86
2020-09-15 07:00:00 22.5 5 Este 10 Nordeste 0 -- -- 86
2020-09-15 06:00:00 22.5 4 Nordeste 15 Sudeste 0 -- -- 86
2020-09-15 05:00:00 22.2 10 Sudeste 17 Sudeste 0 -- -- 84
2020-09-15 04:00:00 22.2 6 Sudeste 10 Sudeste 0 -- -- 85
2020-09-15 03:00:00 22.2 7 Sudeste 12 Sudeste 0 -- -- 85
2020-09-15 02:00:00 22.6 2 Nordeste 6 Norte 0 -- -- 84
2020-09-15 01:00:00 22.9 6 Noroeste 15 Oeste 0 -- -- 84
2020-09-15 00:00:00 23.1 7 Este 14 Sudeste 0 -- -- 77
2020-09-14 23:00:00 22.8 9 Sudeste 13 Sudeste 0 -- -- 83
2020-09-14 22:00:00 22.8 4 Nordeste 9 Sudeste 0 -- -- 84
2020-09-14 21:00:00 22.8 5 Este 10 Este 0 -- -- 84
2020-09-14 20:00:00 23.1 6 Este 9 Nordeste 0 -- -- 82
2020-09-14 19:00:00 23.6 5 Este 13 Nordeste 0 -- -- 80
2020-09-14 18:00:00 24.6 6 Nordeste 12 Nordeste 0 -- -- 75
2020-09-14 17:00:00 25.2 6 Nordeste 14 Nordeste 0 -- -- 74
2020-09-14 16:00:00 25.9 8 Nordeste 17 Este 0 -- -- 71
2020-09-14 15:00:00 25.2 11 Nordeste 16 Nordeste 0 -- -- 76
2020-09-14 14:00:00 25.3 8 Nordeste 15 Nordeste 0 -- -- 74
2020-09-14 13:00:00 25.2 9 Nordeste 14 Este 0 -- -- 75
2020-09-14 12:00:00 24.8 9 Nordeste 15 Nordeste 0 -- -- 76
2020-09-14 11:00:00 24.5 8 Nordeste 15 Este 0 -- -- 77
2020-09-14 10:00:00 24.2 6 Este 13 Sudeste 0 -- -- 77
2020-09-14 09:00:00 22.3 5 Sudeste 9 Sur 0 -- -- 81
2020-09-14 08:00:00 20.9 7 Sur 11 Sur 0 -- -- 84
2020-09-14 07:00:00 21 8 Sudeste 13 Sudeste 0 -- -- 84
2020-09-14 06:00:00 20.9 8 Sur 13 Sur 0 -- -- 83
2020-09-14 05:00:00 20.8 8 Sur 12 Sudeste 0 -- -- 89
2020-09-14 04:00:00 20.5 3 Sur 5 Sudoeste 0 -- -- 93
2020-09-14 03:00:00 20.7 4 Sudoeste 6 Oeste 0 -- -- 91
2020-09-14 02:00:00 21 2 Norte 5 Sudoeste 0 -- -- 91
2020-09-14 01:00:00 20.9 0 Calma 2 Sur 0 -- -- 91
2020-09-14 00:00:00 21.2 0 Calma 4 Sur 0 -- -- 89
2020-09-13 23:00:00 21.8 2 Sudeste 5 Sudeste 0 -- -- 88
2020-09-13 22:00:00 22.4 0 Calma 5 Norte 0 -- -- 86
2020-09-13 21:00:00 22.8 3 Norte 6 Nordeste 0 -- -- 85
2020-09-13 20:00:00 23.1 4 Norte 8 Noroeste 0 -- -- 84
2020-09-13 19:00:00 23.4 5 Noroeste 15 Oeste 0 -- -- 83
2020-09-13 18:00:00 24.5 4 Noroeste 12 Norte 0 -- -- 78
2020-09-13 17:00:00 24.7 6 Norte 12 Norte 0 -- -- 78
2020-09-13 16:00:00 23.9 4 Norte 14 Este 0 -- -- 78
2020-09-13 15:00:00 24.4 8 Nordeste 14 Nordeste 0 -- -- 79
2020-09-13 14:00:00 24.5 9 Nordeste 15 Este 0 -- -- 76
2020-09-13 13:00:00 24 8 Nordeste 15 Nordeste 0 -- -- 79
2020-09-13 12:00:00 24.2 10 Nordeste 19 Este 0 -- -- 78
2020-09-13 11:00:00 23.7 10 Este 20 Este 0 -- -- 80
2020-09-13 10:00:00 23 8 Este 13 Este 0 -- -- 83
2020-09-13 09:00:00 22.1 7 Sudeste 16 Sudeste 0 -- -- 86
2020-09-13 08:00:00 21.5 4 Sur 12 Sudeste 0 -- -- 87
2020-09-13 07:00:00 21.5 8 Sudeste 13 Sudeste 0 -- -- 86
2020-09-13 06:00:00 21.3 7 Sudeste 10 Sudeste 0 -- -- 88
2020-09-13 05:00:00 21.2 3 Sudoeste 6 Sudoeste 0 -- -- 88
2020-09-13 04:00:00 21.9 2 Sur 15 Sudeste 0 -- -- 87
2020-09-13 03:00:00 22.1 8 Este 13 Este 0 -- -- 84
2020-09-13 02:00:00 22.1 7 Sudeste 14 Sudeste 0 -- -- 81
2020-09-13 01:00:00 21.7 9 Sudeste 15 Sudeste 0 -- -- 81
2020-09-13 00:00:00 21.4 2 Sur 6 Este 0 -- -- 84
2020-09-12 23:00:00 21.7 2 Sudeste 4 Este 0 -- -- 83
2020-09-12 22:00:00 22.5 3 Nordeste 10 Este 0 -- -- 81
2020-09-12 21:00:00 22.6 4 Este 8 Norte 0 -- -- 81
2020-09-12 20:00:00 23.1 3 Norte 13 Noroeste 0 -- -- 79
2020-09-12 19:00:00 24 7 Noroeste 14 Norte 0 -- -- 76
2020-09-12 18:00:00 24.5 9 Norte 16 Norte 0 -- -- 72
2020-09-12 17:00:00 25.2 9 Nordeste 17 Nordeste 0 -- -- 71
2020-09-12 16:00:00 24.7 7 Nordeste 12 Este 0 -- -- 73
2020-09-12 15:00:00 25 7 Norte 14 Norte 0 -- -- 71
2020-09-12 14:00:00 24.7 6 Norte 14 Norte 0 -- -- 72
2020-09-12 13:00:00 25.3 7 Norte 13 Norte 0 -- -- 70
2020-09-12 12:00:00 24.7 7 Norte 12 Norte 0 -- -- 73
2020-09-12 11:00:00 24 6 Norte 9 Norte 0 -- -- 75
2020-09-12 10:00:00 23.3 5 Norte 9 Nordeste 0 -- -- 77
2020-09-12 09:00:00 22.3 2 Nordeste 6 Norte 0 -- -- 82
2020-09-12 08:00:00 21.1 2 Nordeste 5 Este 0 -- -- 86
2020-09-12 07:00:00 22 3 Nordeste 10 Nordeste 0 -- -- 82
2020-09-12 06:00:00 22.4 5 Norte 10 Nordeste 0 -- -- 85
2020-09-12 05:00:00 22.4 5 Norte 10 Noroeste 0 -- -- 82
2020-09-12 04:00:00 22.5 3 Norte 9 Noroeste 0 -- -- 83
2020-09-12 03:00:00 22.4 6 Noroeste 15 Noroeste 0 -- -- 82
2020-09-12 02:00:00 22.4 8 Noroeste 15 Noroeste 0 -- -- 81
2020-09-12 01:00:00 22.5 6 Noroeste 10 Noroeste 0 -- -- 81
2020-09-12 00:00:00 22.7 5 Norte 15 Norte 0 -- -- 80
2020-09-11 23:00:00 22.9 4 Noroeste 10 Norte 0 -- -- 78
2020-09-11 22:00:00 22.6 3 Nordeste 12 Norte 0 -- -- 77
2020-09-11 21:00:00 23 4 Noroeste 13 Norte 0 -- -- 77
2020-09-11 20:00:00 23.3 5 Noroeste 16 Norte 0 -- -- 76
2020-09-11 19:00:00 23.8 4 Noroeste 11 Norte 0 -- -- 75
2020-09-11 18:00:00 24.5 6 Noroeste 16 Norte 0 -- -- 71
2020-09-11 17:00:00 25.2 8 Noroeste 16 Noroeste 0 -- -- 69
2020-09-11 16:00:00 25.1 7 Norte 16 Noroeste 0 -- -- 69
2020-09-11 15:00:00 25.1 8 Norte 19 Norte 0 -- -- 68
2020-09-11 14:00:00 25.4 8 Norte 19 Norte 0 -- -- 68
2020-09-11 13:00:00 24.3 9 Noroeste 18 Noroeste 0 -- -- 72
2020-09-11 12:00:00 24.7 9 Norte 17 Noroeste 0 -- -- 70
2020-09-11 11:00:00 24 9 Noroeste 16 Norte 0 -- -- 72
2020-09-11 10:00:00 23.3 6 Noroeste 12 Noroeste 0 -- -- 75
2020-09-11 09:00:00 22.8 8 Norte 19 Norte 0 -- -- 76
2020-09-11 08:00:00 22.5 5 Noroeste 17 Oeste 0 -- -- 75
2020-09-11 07:00:00 22.5 6 Noroeste 18 Noroeste 0 -- -- 79
2020-09-11 06:00:00 22.6 10 Noroeste 19 Noroeste 0 -- -- 80
2020-09-11 05:00:00 22.4 7 Noroeste 15 Noroeste 0 -- -- 77
2020-09-11 04:00:00 22.4 6 Noroeste 16 Norte 0 -- -- 78
2020-09-11 03:00:00 22.5 8 Noroeste 14 Norte 0 -- -- 78
2020-09-11 02:00:00 22.6 4 Noroeste 16 Noroeste 0 -- -- 79
2020-09-11 01:00:00 22.6 5 Noroeste 10 Noroeste 0 -- -- 80
2020-09-11 00:00:00 22.7 6 Noroeste 16 Noroeste 0 -- -- 79
2020-09-10 23:00:00 22.8 9 Noroeste 21 Noroeste 0 -- -- 78
2020-09-10 22:00:00 22.8 10 Noroeste 19 Noroeste 0 -- -- 78
2020-09-10 21:00:00 23.1 8 Noroeste 15 Noroeste 0 -- -- 77
2020-09-10 20:00:00 23.2 8 Noroeste 15 Norte 0 -- -- 77
2020-09-10 19:00:00 23.7 6 Norte 15 Norte 0 -- -- 76
2020-09-10 18:00:00 24.8 5 Noroeste 17 Norte 0 -- -- 72
2020-09-10 17:00:00 25.5 7 Norte 17 Norte 0 -- -- 69
2020-09-10 16:00:00 25.1 6 Norte 13 Norte 0 -- -- 72
2020-09-10 15:00:00 25 6 Norte 15 Nordeste 0 -- -- 71
2020-09-10 14:00:00 24.9 8 Norte 16 Norte 0 -- -- 74
2020-09-10 13:00:00 24.8 8 Norte 13 Norte 0 -- -- 73
2020-09-10 12:00:00 24.5 5 Norte 13 Norte 0 -- -- 73
2020-09-10 11:00:00 24.3 8 Norte 14 Norte 0 -- -- 74
2020-09-10 10:00:00 23.6 5 Noroeste 16 Norte 0 -- -- 78
2020-09-10 09:00:00 22.8 9 Noroeste 18 Noroeste 0 -- -- 81
2020-09-10 08:00:00 22.5 8 Noroeste 17 Oeste 0 -- -- 83
2020-09-10 07:00:00 22.3 8 Noroeste 16 Noroeste 0 -- -- 84
2020-09-10 06:00:00 22.2 9 Noroeste 14 Oeste 0 -- -- 84
2020-09-10 05:00:00 22.2 7 Noroeste 12 Noroeste 0 -- -- 87
2020-09-10 04:00:00 21.8 5 Noroeste 10 Noroeste 0 -- -- 88
2020-09-10 03:00:00 21.8 4 Oeste 8 Oeste 0 -- -- 89
2020-09-10 02:00:00 21.9 5 Oeste 8 Oeste 0 -- -- 88
2020-09-10 01:00:00 22.1 5 Oeste 7 Oeste 0 -- -- 88
2020-09-10 00:00:00 22.3 3 Oeste 5 Norte 0 -- -- 86
2020-09-09 23:00:00 22.5 2 Oeste 5 Oeste 0 -- -- 82
2020-09-09 22:00:00 23.1 3 Noroeste 5 Sudeste 0 -- -- 76
2020-09-09 21:00:00 23.9 3 Este 6 Este 0 -- -- 72
2020-09-09 20:00:00 24.9 4 Este 9 Nordeste 0 -- -- 68
2020-09-09 19:00:00 26.4 3 Norte 10 Este 0 -- -- 63
2020-09-09 18:00:00 26.6 5 Este 13 Este 0 -- -- 62
2020-09-09 17:00:00 27.4 9 Nordeste 21 Sudeste 0 -- -- 54
2020-09-09 16:00:00 27.2 6 Nordeste 15 Sudeste 0 -- -- 58
2020-09-09 15:00:00 27 6 Sudeste 15 Este 0 -- -- 64
2020-09-09 14:00:00 27.6 7 Nordeste 19 Nordeste 0 -- -- 61
2020-09-09 13:00:00 27.6 8 Nordeste 17 Nordeste 0 -- -- 58
2020-09-09 12:00:00 27.5 7 Este 13 Sudeste 0 -- -- 58
2020-09-09 11:00:00 26.8 5 Nordeste 16 Nordeste 0 -- -- 61
2020-09-09 10:00:00 25.9 4 Noroeste 10 Norte 0 -- -- 66
2020-09-09 09:00:00 24.3 2 Noroeste 6 Sur 0 -- -- 73
2020-09-09 08:00:00 21.9 2 Noroeste 7 Noroeste 0 -- -- 74
2020-09-09 07:00:00 21.6 5 Oeste 9 Sudoeste 0 -- -- 76
2020-09-09 06:00:00 22.6 4 Noroeste 10 Norte 0 -- -- 71
2020-09-09 05:00:00 23.1 6 Sudoeste 18 Sudoeste 0 -- -- 74
2020-09-09 04:00:00 23 7 Oeste 17 Oeste 0 -- -- 75
2020-09-09 03:00:00 22.8 6 Sudoeste 16 Oeste 0 -- -- 80
2020-09-09 02:00:00 22.5 8 Oeste 12 Oeste 0 -- -- 84
2020-09-09 01:00:00 22.7 6 Oeste 11 Oeste 0 -- -- 86
2020-09-09 00:00:00 22.3 4 Oeste 6 Oeste 0 -- -- 85
2020-09-08 23:00:00 23.1 2 Oeste 6 Oeste 0 -- -- 82
2020-09-08 22:00:00 23.7 2 Noroeste 7 Oeste 0 -- -- 81
2020-09-08 21:00:00 24.2 3 Sudeste 6 Norte 0 -- -- 79
2020-09-08 20:00:00 25 3 Norte 10 Nordeste 0 -- -- 76
2020-09-08 19:00:00 26.5 3 Norte 11 Norte 0 -- -- 70
2020-09-08 18:00:00 26.4 5 Nordeste 11 Norte 0 -- -- 71
2020-09-08 17:00:00 26.8 4 Norte 14 Noroeste 0 -- -- 72
2020-09-08 16:00:00 26.9 5 Noroeste 13 Norte 0 -- -- 71
2020-09-08 15:00:00 27 9 Norte 15 Norte 0 -- -- 72
2020-09-08 14:00:00 27 6 Norte 14 Noroeste 0 -- -- 74
2020-09-08 13:00:00 26 7 Norte 14 Oeste 0 -- -- 80
2020-09-08 12:00:00 26.6 6 Norte 11 Norte 0 -- -- 71
2020-09-08 11:00:00 27.4 5 Norte 13 Norte 0 -- -- 64
2020-09-08 10:00:00 28.2 7 Nordeste 12 Este 0 -- -- 55
2020-09-08 09:00:00 26.1 6 Sudeste 10 Sudeste 0 -- -- 50
2020-09-08 08:00:00 22.1 5 Este 9 Este 0 -- -- 59
2020-09-08 07:00:00 23.2 7 Sudeste 14 Sudeste 0 -- -- 60
2020-09-08 06:00:00 22.8 4 Sudeste 8 Sudeste 0 -- -- 66
2020-09-08 05:00:00 22.5 4 Sudeste 6 Sudeste 0 -- -- 69
2020-09-08 04:00:00 22.1 4 Sudeste 6 Este 0 -- -- 73
2020-09-08 03:00:00 22.8 4 Sudeste 8 Este 0 -- -- 69
2020-09-08 02:00:00 23.4 5 Sudeste 8 Sudeste 0 -- -- 70
2020-09-08 01:00:00 23.4 5 Sudeste 8 Este 0 -- -- 73
2020-09-08 00:00:00 24 4 Sudeste 8 Sur 0 -- -- 68
2020-09-07 23:00:00 24.3 5 Este 10 Este 0 -- -- 66
2020-09-07 22:00:00 24.5 3 Sudeste 10 Este 0 -- -- 66
2020-09-07 21:00:00 25.2 5 Este 9 Nordeste 0 -- -- 61
2020-09-07 20:00:00 26.2 4 Este 10 Este 0 -- -- 58
2020-09-07 19:00:00 26.6 6 Este 16 Este 0 -- -- 58
2020-09-07 18:00:00 25.8 6 Este 13 Este 0 -- -- 63
2020-09-07 17:00:00 25 10 Nordeste 17 Nordeste 0 -- -- 82
2020-09-07 16:00:00 25.9 11 Nordeste 17 Este 0 -- -- 79
2020-09-07 15:00:00 25.3 9 Nordeste 14 Nordeste 0 -- -- 80
2020-09-07 14:00:00 25.2 6 Nordeste 13 Nordeste 0 -- -- 81
2020-09-07 13:00:00 25 8 Nordeste 12 Nordeste 0 -- -- 82
2020-09-07 12:00:00 24.6 6 Norte 14 Norte 0 -- -- 84
2020-09-07 11:00:00 24.1 5 Norte 9 Norte 0 -- -- 86
2020-09-07 10:00:00 23.5 4 Norte 8 Norte 0 -- -- 87
2020-09-07 09:00:00 22.8 2 Norte 4 Nordeste 0 -- -- 91
2020-09-07 08:00:00 21.6 0 Calma 4 Este 0 -- -- 91
2020-09-07 07:00:00 22 0 Calma 6 Este 0 -- -- 90
2020-09-07 06:00:00 22.4 4 Nordeste 8 Este 0 -- -- 89
2020-09-07 05:00:00 22.5 4 Nordeste 12 Noroeste 0 -- -- 89
2020-09-07 04:00:00 22.4 6 Noroeste 11 Noroeste 0 -- -- 89
2020-09-07 03:00:00 22.4 4 Nordeste 9 Este 0 -- -- 88
2020-09-07 02:00:00 22.5 4 Este 7 Nordeste 0 -- -- 87
2020-09-07 01:00:00 22.6 5 Nordeste 8 Este 0 -- -- 86
2020-09-07 00:00:00 22.7 5 Este 8 Nordeste 0 -- -- 85
2020-09-06 23:00:00 22.7 2 Norte 8 Nordeste 0 -- -- 84
2020-09-06 22:00:00 22.6 5 Nordeste 9 Este 0 -- -- 84
2020-09-06 21:00:00 22.7 4 Nordeste 9 Nordeste 0 -- -- 83
2020-09-06 20:00:00 23.2 4 Nordeste 10 Nordeste 0 -- -- 81
2020-09-06 19:00:00 24 7 Nordeste 12 Este 0 -- -- 77
2020-09-06 18:00:00 24.8 7 Nordeste 13 Norte 0 -- -- 74
2020-09-06 17:00:00 25 8 Nordeste 13 Nordeste 0 -- -- 73
2020-09-06 16:00:00 25.1 9 Nordeste 14 Norte 0 -- -- 73
2020-09-06 15:00:00 25.2 9 Norte 15 Nordeste 0 -- -- 73
2020-09-06 14:00:00 25.1 8 Nordeste 15 Norte 0 -- -- 73
2020-09-06 13:00:00 24.8 8 Norte 13 Nordeste 0 -- -- 75
2020-09-06 12:00:00 24.6 6 Norte 13 Nordeste 0 -- -- 74
2020-09-06 11:00:00 24.1 8 Norte 13 Norte 0 -- -- 75
2020-09-06 10:00:00 23.4 6 Norte 10 Noroeste 0 -- -- 77
2020-09-06 09:00:00 22.1 6 Oeste 14 Noroeste 0 -- -- 83
2020-09-06 08:00:00 21.3 6 Oeste 10 Oeste 0 -- -- 86
2020-09-06 07:00:00 21.2 3 Oeste 9 Oeste 0 -- -- 87
2020-09-06 06:00:00 21.7 7 Noroeste 11 Noroeste 0 -- -- 86
2020-09-06 05:00:00 21.7 3 Noroeste 12 Noroeste 0 -- -- 86
2020-09-06 04:00:00 21.5 4 Oeste 6 Oeste 0 -- -- 86
2020-09-06 03:00:00 22.2 4 Norte 9 Norte 0 -- -- 82
2020-09-06 02:00:00 22.3 2 Norte 10 Norte 0 -- -- 84
2020-09-06 01:00:00 22.3 4 Noroeste 12 Noroeste 0 -- -- 83
2020-09-06 00:00:00 22.5 5 Noroeste 13 Norte 0 -- -- 82
2020-09-05 23:00:00 22.7 5 Noroeste 13 Noroeste 0 -- -- 83
2020-09-05 22:00:00 22.8 8 Noroeste 14 Noroeste 0 -- -- 82
2020-09-05 21:00:00 22.9 10 Noroeste 16 Noroeste 0 -- -- 81
2020-09-05 20:00:00 23.4 7 Noroeste 17 Noroeste 0 -- -- 79
2020-09-05 19:00:00 24.5 9 Noroeste 19 Noroeste 0 -- -- 76
2020-09-05 18:00:00 25.3 10 Noroeste 22 Noroeste 0 -- -- 72
2020-09-05 17:00:00 25.5 13 Noroeste 27 Noroeste 0 -- -- 69
2020-09-05 16:00:00 25.8 16 Noroeste 26 Oeste 0 -- -- 67
2020-09-05 15:00:00 26 11 Noroeste 19 Noroeste 0 -- -- 67
2020-09-05 14:00:00 25.8 8 Norte 15 Norte 0 -- -- 69
2020-09-05 13:00:00 25.4 9 Norte 14 Norte 0 -- -- 69
2020-09-05 12:00:00 25.3 8 Nordeste 14 Nordeste 0 -- -- 71
2020-09-05 11:00:00 25 6 Nordeste 12 Nordeste 0 -- -- 69
2020-09-05 10:00:00 24.2 6 Norte 12 Oeste 0 -- -- 73
2020-09-05 09:00:00 23.2 5 Noroeste 11 Noroeste 0 -- -- 74
2020-09-05 08:00:00 22.4 4 Noroeste 8 Noroeste 0 -- -- 79
2020-09-05 07:00:00 22.3 6 Norte 11 Norte 0 -- -- 78
2020-09-05 06:00:00 22.3 7 Nordeste 13 Nordeste 0 -- -- 80
2020-09-05 05:00:00 22.4 3 Norte 12 Noroeste 0 -- -- 82
2020-09-05 04:00:00 22.4 4 Noroeste 14 Noroeste 0 -- -- 81
2020-09-05 03:00:00 22.4 6 Noroeste 13 Noroeste 0 -- -- 82
2020-09-05 02:00:00 22.3 6 Noroeste 14 Noroeste 0 -- -- 82
2020-09-05 01:00:00 22.3 9 Noroeste 13 Noroeste 0 -- -- 84
2020-09-05 00:00:00 22.5 8 Noroeste 13 Noroeste 0 -- -- 84
2020-09-04 23:00:00 22.4 7 Noroeste 14 Oeste 0 -- -- 85
2020-09-04 22:00:00 22.1 6 Noroeste 10 Oeste 0 -- -- 84
2020-09-04 21:00:00 22.3 3 Norte 6 Norte 0 -- -- 82
2020-09-04 20:00:00 23 3 Nordeste 11 Nordeste 0 -- -- 79
2020-09-04 19:00:00 23.7 8 Nordeste 14 Nordeste 0 -- -- 76
2020-09-04 18:00:00 24.6 8 Nordeste 14 Nordeste 0 -- -- 72
2020-09-04 17:00:00 25.1 9 Nordeste 16 Nordeste 0 -- -- 70
2020-09-04 16:00:00 25.1 9 Nordeste 14 Nordeste 0 -- -- 70
2020-09-04 15:00:00 25.2 8 Nordeste 15 Nordeste 0 -- -- 69
2020-09-04 14:00:00 25.3 9 Norte 15 Norte 0 -- -- 68
2020-09-04 13:00:00 25.1 8 Norte 13 Norte 0 -- -- 69
2020-09-04 12:00:00 24.6 7 Norte 15 Norte 0 -- -- 69
2020-09-04 11:00:00 23.7 5 Norte 12 Nordeste 0 -- -- 72
2020-09-04 10:00:00 23.2 6 Noroeste 12 Norte 0 -- -- 75
2020-09-04 09:00:00 22.2 4 Noroeste 13 Norte 0 -- -- 78
2020-09-04 08:00:00 21.3 5 Oeste 7 Noroeste 0 -- -- 80
2020-09-04 07:00:00 21.5 4 Nordeste 10 Nordeste 0 -- -- 79
2020-09-04 06:00:00 21.8 5 Norte 11 Norte 0 -- -- 80
2020-09-04 05:00:00 21.8 3 Norte 10 Noroeste 0 -- -- 81
2020-09-04 04:00:00 21.8 4 Noroeste 10 Norte 0 -- -- 81
2020-09-04 03:00:00 21.8 3 Noroeste 11 Norte 0 -- -- 82
2020-09-04 02:00:00 21.8 3 Noroeste 13 Norte 0 -- -- 81
2020-09-04 01:00:00 22.1 4 Noroeste 9 Nordeste 0 -- -- 80
2020-09-04 00:00:00 22.3 4 Nordeste 12 Nordeste 0 -- -- 79
2020-09-03 23:00:00 22.4 5 Nordeste 13 Nordeste 0 -- -- 79
2020-09-03 22:00:00 22.4 3 Nordeste 11 Norte 0 -- -- 80
2020-09-03 21:00:00 22.5 4 Norte 9 Norte 0 -- -- 80
2020-09-03 20:00:00 23 5 Norte 12 Norte 0 -- -- 78
2020-09-03 19:00:00 23.9 6 Nordeste 15 Nordeste 0 -- -- 75
2020-09-03 18:00:00 24.9 7 Nordeste 16 Nordeste 0 -- -- 71
2020-09-03 17:00:00 25.1 9 Nordeste 18 Nordeste 0 -- -- 71
2020-09-03 16:00:00 25.9 10 Nordeste 22 Nordeste 0 -- -- 68
2020-09-03 15:00:00 25.8 12 Nordeste 21 Nordeste 0 -- -- 67
2020-09-03 14:00:00 26.1 12 Nordeste 20 Este 0 -- -- 66
2020-09-03 13:00:00 25.4 13 Nordeste 21 Nordeste 0 -- -- 69
2020-09-03 12:00:00 25.2 12 Nordeste 21 Nordeste 0 -- -- 69
2020-09-03 11:00:00 24.2 10 Nordeste 17 Nordeste 0 -- -- 75
2020-09-03 10:00:00 23.3 9 Este 20 Este 0 -- -- 75
2020-09-03 09:00:00 22.6 7 Sudeste 13 Sur 0 -- -- 79
2020-09-03 08:00:00 21.1 7 Sudeste 15 Sur 0 -- -- 83
2020-09-03 07:00:00 21 5 Sudeste 10 Sur 0 -- -- 83
2020-09-03 06:00:00 20.9 6 Sudeste 11 Sudeste 0 -- -- 84
2020-09-03 05:00:00 20.7 6 Sudeste 13 Sur 0 -- -- 87
2020-09-03 04:00:00 20.4 6 Sudeste 12 Sur 0 -- -- 86
2020-09-03 03:00:00 20.7 7 Sudeste 12 Sudeste 0 -- -- 87
2020-09-03 02:00:00 20.3 5 Sudeste 7 Sudeste 0 -- -- 88
2020-09-03 01:00:00 20.6 5 Sudeste 8 Sudeste 0 -- -- 88
2020-09-03 00:00:00 21.1 5 Sudeste 10 Este 0 -- -- 88
2020-09-02 23:00:00 21.8 5 Este 11 Este 0 -- -- 86
2020-09-02 22:00:00 22.1 6 Este 12 Este 0 -- -- 86
2020-09-02 21:00:00 22.6 6 Este 13 Este 0 -- -- 85
2020-09-02 20:00:00 23.4 8 Nordeste 14 Nordeste 0 -- -- 83
2020-09-02 19:00:00 24.1 7 Nordeste 12 Este 0 -- -- 79
2020-09-02 18:00:00 25 9 Nordeste 14 Nordeste 0 -- -- 74
2020-09-02 17:00:00 25.9 8 Nordeste 14 Nordeste 0 -- -- 71
2020-09-02 16:00:00 25.8 8 Nordeste 15 Nordeste 0 -- -- 71
2020-09-02 15:00:00 26.2 8 Nordeste 15 Nordeste 0 -- -- 71
2020-09-02 14:00:00 25.7 7 Nordeste 15 Nordeste 0 -- -- 69
2020-09-02 13:00:00 25.4 7 Nordeste 15 Nordeste 0 -- -- 68
2020-09-02 12:00:00 24.8 7 Nordeste 15 Norte 0 -- -- 71
2020-09-02 11:00:00 23.9 5 Nordeste 10 Este 0 -- -- 75
2020-09-02 10:00:00 22.8 4 Este 8 Este 0 -- -- 78
2020-09-02 09:00:00 22.1 6 Este 10 Este 0 -- -- 79
2020-09-02 08:00:00 21.8 6 Nordeste 12 Norte 0 -- -- 82
2020-09-02 07:00:00 21.8 2 Norte 11 Norte 0 -- -- 82
2020-09-02 06:00:00 21.8 4 Nordeste 10 Nordeste 0 -- -- 84
2020-09-02 05:00:00 21.9 4 Norte 12 Norte 0 -- -- 85
2020-09-02 04:00:00 21.7 4 Norte 9 Norte 0 -- -- 85
2020-09-02 03:00:00 21.9 3 Sudeste 8 Sudeste 0 -- -- 90
2020-09-02 02:00:00 22.1 2 Este 6 Norte 0 -- -- 90
2020-09-02 01:00:00 22.5 3 Norte 11 Noroeste 0 -- -- 90
2020-09-02 00:00:00 22.9 6 Noroeste 14 Noroeste 0 -- -- 90
2020-09-01 23:00:00 23 7 Noroeste 15 Noroeste 0 -- -- 87
2020-09-01 22:00:00 23.1 7 Noroeste 17 Oeste 0 -- -- 87
2020-09-01 21:00:00 23 9 Noroeste 17 Noroeste 0 -- -- 88
2020-09-01 20:00:00 23.8 8 Noroeste 14 Oeste 0 -- -- 84
2020-09-01 19:00:00 24.1 9 Noroeste 15 Noroeste 0 -- -- 84
2020-09-01 18:00:00 24.9 9 Noroeste 16 Noroeste 0 -- -- 80
2020-09-01 17:00:00 25.6 10 Noroeste 17 Noroeste 0 -- -- 77
2020-09-01 16:00:00 25.4 11 Noroeste 18 Noroeste 0 -- -- 77
2020-09-01 15:00:00 25.9 9 Norte 18 Norte 0 -- -- 75
2020-09-01 14:00:00 25.5 10 Norte 15 Norte 0 -- -- 77
2020-09-01 13:00:00 25.5 8 Norte 15 Norte 0 -- -- 79
2020-09-01 12:00:00 24.9 8 Norte 13 Norte 0 -- -- 80
2020-09-01 11:00:00 24.2 7 Norte 15 Nordeste 0 -- -- 83
2020-09-01 10:00:00 23.7 9 Norte 19 Norte 0 -- -- 84
2020-09-01 09:00:00 23 7 Norte 17 Norte 0 -- -- 89
2020-09-01 08:00:00 22.4 3 Noroeste 12 Noroeste 0 -- -- 91
2020-09-01 07:00:00 22.3 6 Noroeste 12 Noroeste 0 -- -- 91
2020-09-01 06:00:00 22.5 5 Norte 13 Noroeste 0 -- -- 90
2020-09-01 05:00:00 22.4 6 Oeste 11 Oeste 0 -- -- 89
2020-09-01 04:00:00 22.4 5 Noroeste 10 Norte 0 -- -- 89
2020-09-01 03:00:00 22.5 4 Noroeste 12 Norte 0 -- -- 89
2020-09-01 02:00:00 22.5 5 Noroeste 12 Norte 0 -- -- 87
2020-09-01 01:00:00 22.6 4 Noroeste 13 Noroeste 0 -- -- 86
2020-09-01 00:00:00 22.5 6 Noroeste 17 Norte 0 -- -- 86
2020-08-31 23:00:00 22.5 6 Noroeste 23 Norte 0 -- -- 84
2020-08-31 22:00:00 22.6 5 Noroeste 18 Noroeste 0 -- -- 84
2020-08-31 21:00:00 22.3 10 Noroeste 17 Noroeste 0 -- -- 83
2020-08-31 20:00:00 22.6 9 Noroeste 19 Noroeste 0 -- -- 78
2020-08-31 19:00:00 23.7 10 Noroeste 19 Noroeste 0 -- -- 74
2020-08-31 18:00:00 24.8 9 Noroeste 18 Norte 0 -- -- 68
2020-08-31 17:00:00 25.3 9 Noroeste 19 Noroeste 0 -- -- 66
2020-08-31 16:00:00 25.7 9 Norte 21 Norte 0 -- -- 65
2020-08-31 15:00:00 25.2 10 Norte 25 Noroeste 0 -- -- 66
2020-08-31 14:00:00 25.8 10 Norte 26 Norte 0 -- -- 64
2020-08-31 13:00:00 24.9 13 Norte 22 Norte 0 -- -- 67
2020-08-31 12:00:00 24.4 15 Norte 23 Norte 0 -- -- 68
2020-08-31 11:00:00 23.3 13 Norte 23 Norte 0 -- -- 72
2020-08-31 10:00:00 22.8 12 Norte 21 Norte 0 -- -- 75
2020-08-31 09:00:00 22.1 11 Norte 19 Norte 0 -- -- 78
2020-08-31 08:00:00 21.3 8 Noroeste 15 Norte 0 -- -- 80
2020-08-31 07:00:00 21.2 6 Noroeste 14 Noroeste 0 -- -- 80
2020-08-31 06:00:00 21.3 8 Noroeste 17 Noroeste 0 -- -- 80
2020-08-31 05:00:00 21.3 7 Norte 18 Nordeste 0 -- -- 79
2020-08-31 04:00:00 21.4 6 Noroeste 19 Norte 0 -- -- 80
2020-08-31 03:00:00 21.5 6 Norte 15 Norte 0 -- -- 78
2020-08-31 02:00:00 21.5 7 Norte 18 Norte 0 -- -- 77
2020-08-31 01:00:00 21.5 6 Norte 22 Norte 0 -- -- 76
2020-08-31 00:00:00 21.6 5 Norte 19 Noroeste 0 -- -- 76
2020-08-30 23:00:00 21.7 14 Norte 23 Norte 0 -- -- 72
2020-08-30 22:00:00 22 6 Norte 19 Norte 0 -- -- 74
2020-08-30 21:00:00 22 9 Norte 21 Norte 0 -- -- 72
2020-08-30 20:00:00 22.6 9 Norte 24 Norte 0 -- -- 69
2020-08-30 19:00:00 23 11 Norte 25 Norte 0 -- -- 67
2020-08-30 18:00:00 23.4 13 Norte 26 Nordeste 0 -- -- 68
2020-08-30 17:00:00 25 10 Norte 24 Norte 0 -- -- 66
2020-08-30 16:00:00 24.8 17 Norte 27 Norte 0 -- -- 63
2020-08-30 15:00:00 25 14 Norte 24 Norte 0 -- -- 64
2020-08-30 14:00:00 25.4 12 Norte 24 Norte 0 -- -- 63
2020-08-30 13:00:00 25.1 14 Norte 27 Norte 0 -- -- 66
2020-08-30 12:00:00 23.8 16 Norte 32 Norte 0 -- -- 68
2020-08-30 11:00:00 21.7 7 Noroeste 31 Norte 0 -- -- 78
2020-08-30 10:00:00 21.8 14 Norte 33 Norte 0 -- -- 79
2020-08-30 09:00:00 21.7 12 Noroeste 26 Norte 0 -- -- 71
2020-08-30 08:00:00 21.5 14 Norte 36 Norte 0 -- -- 71
2020-08-30 07:00:00 21.3 19 Norte 31 Norte 0 -- -- 72
2020-08-30 06:00:00 21.6 6 Noroeste 33 Norte 0 -- -- 77
2020-08-30 05:00:00 21.4 21 Norte 48 Norte 0.8 -- -- 72
2020-08-30 04:00:00 21.9 7 Noroeste 22 Noroeste 0 -- -- 78
2020-08-30 03:00:00 21.8 9 Norte 25 Norte 0 -- -- 77
2020-08-30 02:00:00 21.9 14 Norte 29 Norte 0 -- -- 74
2020-08-30 01:00:00 22 14 Norte 29 Norte 0 -- -- 74
2020-08-30 00:00:00 22.1 8 Norte 22 Norte 0 -- -- 77
2020-08-29 23:00:00 22.3 9 Norte 22 Norte 0 -- -- 77
2020-08-29 22:00:00 22.5 10 Norte 23 Norte 0 -- -- 80
2020-08-29 21:00:00 22.4 8 Noroeste 19 Norte 0 -- -- 79
2020-08-29 20:00:00 22.7 14 Norte 31 Norte 0 -- -- 77
2020-08-29 19:00:00 23.4 17 Norte 31 Nordeste 0 -- -- 79
2020-08-29 18:00:00 23.8 17 Norte 27 Norte 0 -- -- 82
2020-08-29 17:00:00 24.8 10 Norte 25 Norte 0 -- -- 79
2020-08-29 16:00:00 25.3 10 Noroeste 18 Oeste 0 -- -- 77
2020-08-29 15:00:00 26.9 8 Noroeste 18 Noroeste 0 -- -- 68
2020-08-29 14:00:00 26.6 7 Noroeste 19 Oeste 0 -- -- 64
2020-08-29 13:00:00 25.9 8 Noroeste 16 Oeste 0 -- -- 65
2020-08-29 12:00:00 25.2 7 Noroeste 16 Noroeste 0 -- -- 70
2020-08-29 11:00:00 24.3 8 Noroeste 14 Norte 0 -- -- 72
2020-08-29 10:00:00 23.3 8 Norte 19 Norte 0 -- -- 72
2020-08-29 09:00:00 22.7 11 Norte 24 Norte 0 -- -- 72
2020-08-29 08:00:00 22.3 14 Norte 22 Norte 0 -- -- 76
2020-08-29 07:00:00 22.2 10 Norte 24 Norte 0 -- -- 76
2020-08-29 06:00:00 22.2 7 Norte 15 Norte 0 -- -- 80
2020-08-29 05:00:00 22.1 6 Norte 16 Norte 0 -- -- 81
2020-08-29 04:00:00 22.1 5 Norte 17 Norte 0 -- -- 81
2020-08-29 03:00:00 22.2 8 Norte 18 Norte 0 -- -- 82
2020-08-29 02:00:00 22.3 9 Norte 17 Norte 0 -- -- 83
2020-08-29 01:00:00 22.5 7 Norte 15 Norte 0 -- -- 84
2020-08-29 00:00:00 22.5 4 Noroeste 10 Norte 0 -- -- 85
2020-08-28 23:00:00 22.7 5 Norte 13 Norte 0 -- -- 85
2020-08-28 22:00:00 22.9 5 Norte 12 Norte 0 -- -- 86
2020-08-28 21:00:00 23.1 3 Norte 9 Norte 0 -- -- 85
2020-08-28 20:00:00 23.8 3 Norte 9 Nordeste 0 -- -- 83
2020-08-28 19:00:00 24.5 5 Norte 14 Norte 0 -- -- 81
2020-08-28 18:00:00 25.4 6 Norte 14 Norte 0 -- -- 77
2020-08-28 17:00:00 25.8 8 Norte 14 Norte 0 -- -- 77
2020-08-28 16:00:00 25.9 8 Noroeste 21 Norte 0 -- -- 77
2020-08-28 15:00:00 26.2 8 Noroeste 15 Noroeste 0 -- -- 77
2020-08-28 14:00:00 26.3 8 Oeste 15 Noroeste 0 -- -- 76
2020-08-28 13:00:00 26.4 5 Noroeste 12 Oeste 0 -- -- 72
2020-08-28 12:00:00 26.9 6 Sudeste 14 Sudeste 0 -- -- 68
2020-08-28 11:00:00 25.5 7 Norte 13 Noroeste 0 -- -- 78
2020-08-28 10:00:00 24.8 5 Sudoeste 14 Noroeste 0 -- -- 80
2020-08-28 09:00:00 24 4 Oeste 13 Sudoeste 0 -- -- 83
2020-08-28 08:00:00 22.8 5 Oeste 12 Oeste 0 -- -- 84
2020-08-28 07:00:00 22.8 7 Oeste 11 Oeste 0 -- -- 81
2020-08-28 06:00:00 23.1 7 Oeste 14 Oeste 0 -- -- 79
2020-08-28 05:00:00 23.1 3 Oeste 15 Oeste 0 -- -- 81
2020-08-28 04:00:00 23.2 8 Oeste 12 Oeste 0 -- -- 80
2020-08-28 03:00:00 23.6 7 Oeste 14 Oeste 0 -- -- 79
2020-08-28 02:00:00 23.8 6 Oeste 10 Noroeste 0 -- -- 73
2020-08-28 01:00:00 24.7 6 Sudoeste 14 Este 0 -- -- 66
2020-08-28 00:00:00 24.5 5 Oeste 12 Noroeste 0 -- -- 70
2020-08-27 23:00:00 24.2 2 Sur 9 Sur 0 -- -- 72
2020-08-27 22:00:00 24.5 5 Oeste 8 Oeste 0 -- -- 79
2020-08-27 21:00:00 25.1 3 Noroeste 9 Noroeste 0 -- -- 77
2020-08-27 20:00:00 25.9 5 Noroeste 10 Oeste 0 -- -- 76
2020-08-27 19:00:00 26.8 5 Noroeste 10 Norte 0 -- -- 74
2020-08-27 18:00:00 27.9 5 Norte 12 Nordeste 0 -- -- 69
2020-08-27 17:00:00 27.9 6 Este 12 Este 0 -- -- 71
2020-08-27 16:00:00 28.2 6 Nordeste 13 Este 0 -- -- 71
2020-08-27 15:00:00 27.9 5 Norte 13 Norte 0 -- -- 72
2020-08-27 14:00:00 27.4 5 Nordeste 10 Norte 0 -- -- 74
2020-08-27 13:00:00 28.4 5 Norte 10 Norte 0 -- -- 69
2020-08-27 12:00:00 26.6 4 Nordeste 13 Norte 0 -- -- 78
2020-08-27 11:00:00 25.9 5 Noroeste 12 Noroeste 0 -- -- 83
2020-08-27 10:00:00 25.5 6 Noroeste 12 Oeste 0 -- -- 83
2020-08-27 09:00:00 24.1 7 Oeste 12 Oeste 0 -- -- 92
2020-08-27 08:00:00 23.5 6 Oeste 10 Oeste 0 -- -- 94
2020-08-27 07:00:00 23.5 6 Oeste 11 Oeste 0 -- -- 94
2020-08-27 06:00:00 23.5 7 Oeste 11 Oeste 0 -- -- 94
2020-08-27 05:00:00 23.7 8 Oeste 11 Oeste 0 -- -- 93
2020-08-27 04:00:00 24 5 Noroeste 8 Noroeste 0 -- -- 92
2020-08-27 03:00:00 24.2 4 Noroeste 10 Oeste 0 -- -- 91
2020-08-27 02:00:00 24.1 5 Oeste 8 Oeste 0 -- -- 91
2020-08-27 01:00:00 24.2 5 Noroeste 13 Oeste 0 -- -- 90
2020-08-27 00:00:00 24.3 8 Oeste 15 Oeste 0 -- -- 89
2020-08-26 23:00:00 24.6 9 Sudoeste 14 Sudoeste 0 -- -- 88
2020-08-26 22:00:00 24.4 7 Oeste 12 Oeste 0 -- -- 89
2020-08-26 21:00:00 24.6 3 Noroeste 5 Norte 0 -- -- 88
2020-08-26 20:00:00 24.9 3 Norte 8 Nordeste 0 -- -- 87
2020-08-26 19:00:00 25.4 4 Norte 9 Este 0 -- -- 85
2020-08-26 18:00:00 25.8 4 Norte 10 Nordeste 0 -- -- 83
2020-08-26 17:00:00 25.9 6 Norte 12 Nordeste 0 -- -- 83
2020-08-26 16:00:00 25.8 7 Nordeste 13 Nordeste 0 -- -- 83
2020-08-26 15:00:00 25.8 7 Nordeste 13 Este 0 -- -- 83
2020-08-26 14:00:00 25.5 8 Nordeste 15 Nordeste 0 -- -- 84
2020-08-26 13:00:00 25.5 6 Nordeste 13 Este 0 -- -- 84
2020-08-26 12:00:00 24.9 8 Nordeste 12 Nordeste 0 -- -- 86
2020-08-26 11:00:00 24 5 Este 12 Este 0 -- -- 90
2020-08-26 10:00:00 23.4 2 Este 9 Sudeste 0 -- -- 92
2020-08-26 09:00:00 22.9 5 Este 9 Este 0 -- -- 92
2020-08-26 08:00:00 22.7 4 Nordeste 8 Este 0 -- -- 92
2020-08-26 07:00:00 22.8 2 Norte 6 Norte 0 -- -- 92
2020-08-26 06:00:00 22.7 4 Nordeste 8 Este 0 -- -- 92
2020-08-26 05:00:00 22.6 3 Norte 9 Nordeste 0 -- -- 91
2020-08-26 04:00:00 22.3 0 Calma 6 Noroeste 0 -- -- 90
2020-08-26 03:00:00 22.8 3 Oeste 12 Sudeste 0 -- -- 87
2020-08-26 02:00:00 22.9 3 Este 9 Oeste 0 -- -- 89
2020-08-26 01:00:00 22.9 4 Noroeste 12 Oeste 0 -- -- 89
2020-08-26 00:00:00 22.9 5 Noroeste 17 Noroeste 0 -- -- 88